createdAt,value
2022-08-16T00:03:37.825Z,99.90
2022-08-16T00:08:39.916Z,99.90
2022-08-16T00:13:53.904Z,99.90
2022-08-16T00:18:57.623Z,99.90
2022-08-16T00:24:00.715Z,99.90
2022-08-16T00:29:06.704Z,99.90
2022-08-16T00:34:08.626Z,99.90
2022-08-16T00:39:20.450Z,99.90
2022-08-16T00:44:22.952Z,99.90
2022-08-16T00:49:39.756Z,99.90
2022-08-16T00:54:47.090Z,99.90
2022-08-16T00:59:58.729Z,99.90
2022-08-16T01:05:09.632Z,99.90
2022-08-16T01:10:16.385Z,99.90
2022-08-16T01:15:19.267Z,99.90
2022-08-16T01:20:30.320Z,99.90
2022-08-16T01:25:37.115Z,99.90
2022-08-16T01:30:49.673Z,99.90
2022-08-16T01:36:11.703Z,99.90
2022-08-16T01:41:23.813Z,99.90
2022-08-16T01:46:42.415Z,99.90
2022-08-16T01:51:47.084Z,99.90
2022-08-16T01:56:49.252Z,99.90
2022-08-16T02:02:00.226Z,99.90
2022-08-16T02:07:08.489Z,99.90
2022-08-16T02:12:50.006Z,99.90
2022-08-16T02:17:35.814Z,99.90
2022-08-16T02:22:37.852Z,99.90
2022-08-16T02:27:42.133Z,99.90
2022-08-16T02:32:50.087Z,99.90
2022-08-16T02:37:56.148Z,99.90
2022-08-16T02:42:58.480Z,99.90
2022-08-16T02:48:28.884Z,99.90
2022-08-16T02:53:24.262Z,99.90
2022-08-16T02:58:29.169Z,99.90
2022-08-16T03:04:40.564Z,99.90
2022-08-16T03:08:54.536Z,99.90
2022-08-16T03:13:56.616Z,99.90
2022-08-16T03:18:58.636Z,99.90
2022-08-16T03:24:03.903Z,99.90
2022-08-16T03:29:05.846Z,99.90
2022-08-16T03:34:09.510Z,99.90
2022-08-16T03:39:20.184Z,99.90
2022-08-16T03:44:44.479Z,99.90
2022-08-16T03:49:44.445Z,99.90
2022-08-16T03:54:53.299Z,99.90
2022-08-16T03:59:55.795Z,99.90
2022-08-16T04:04:57.564Z,99.90
2022-08-16T04:09:59.422Z,99.90
2022-08-16T04:15:07.829Z,99.90
2022-08-16T04:20:23.173Z,99.90
2022-08-16T04:25:31.207Z,99.90
2022-08-16T04:30:34.963Z,99.90
2022-08-16T04:35:38.643Z,99.90
2022-08-16T04:40:40.975Z,99.90
2022-08-16T04:45:43.272Z,99.90
2022-08-16T04:50:45.083Z,99.90
2022-08-16T04:55:47.087Z,99.90
2022-08-16T05:00:55.216Z,99.90
2022-08-16T05:06:02.271Z,99.90
2022-08-16T05:11:09.369Z,99.90
2022-08-16T05:16:40.748Z,99.90
2022-08-16T05:21:42.863Z,99.90
2022-08-16T05:26:51.556Z,99.90
2022-08-16T05:31:54.419Z,99.90
2022-08-16T05:36:58.628Z,99.90
2022-08-16T05:42:00.740Z,99.90
2022-08-16T05:47:02.859Z,99.90
2022-08-16T05:52:11.211Z,99.90
2022-08-16T05:57:13.723Z,99.90
2022-08-16T06:02:17.571Z,99.90
2022-08-16T06:07:24.356Z,99.90
2022-08-16T06:12:28.968Z,99.90
2022-08-16T06:17:42.508Z,99.90
2022-08-16T06:22:47.601Z,99.90
2022-08-16T06:27:57.141Z,99.90
2022-08-16T06:33:01.167Z,99.90
2022-08-16T06:38:04.604Z,99.90
2022-08-16T06:43:06.694Z,99.90
2022-08-16T06:48:10.987Z,99.90
2022-08-16T06:53:14.980Z,99.90
2022-08-16T06:58:22.259Z,93.40
2022-08-16T07:03:27.753Z,82.70
2022-08-16T07:08:29.977Z,92.20
2022-08-16T07:19:01.314Z,89.40
2022-08-16T07:24:06.348Z,75.90
2022-08-16T07:29:08.285Z,72.50
2022-08-16T07:34:10.406Z,64.90
2022-08-16T07:39:13.765Z,66.30
2022-08-16T07:44:16.884Z,60.10
2022-08-16T07:49:19.308Z,56.60
2022-08-16T07:54:37.867Z,52.10
2022-08-16T07:59:42.974Z,56.20
2022-08-16T08:04:49.088Z,54.60
2022-08-16T08:09:52.080Z,55.60
2022-08-16T08:14:54.750Z,62.70
2022-08-16T08:19:56.543Z,71.00
2022-08-16T08:24:59.095Z,75.60
2022-08-16T08:30:49.402Z,73.60
2022-08-16T08:35:26.829Z,66.20
2022-08-16T08:40:30.388Z,56.80
2022-08-16T08:45:48.440Z,56.20
2022-08-16T08:50:51.404Z,62.60
2022-08-16T08:55:59.140Z,55.90
2022-08-16T09:01:01.717Z,53.40
2022-08-16T09:06:05.752Z,53.20
2022-08-16T09:11:08.840Z,51.90
2022-08-16T09:17:02.858Z,50.20
2022-08-16T09:21:40.636Z,55.10
2022-08-16T09:26:46.558Z,53.70
2022-08-16T09:31:53.656Z,55.50
2022-08-16T09:36:58.007Z,53.00
2022-08-16T09:42:03.030Z,54.40
2022-08-16T09:47:10.334Z,50.70
2022-08-16T09:52:12.438Z,49.90
2022-08-16T09:57:14.266Z,51.40
2022-08-16T10:02:26.176Z,54.00
2022-08-16T10:07:38.375Z,53.10
2022-08-16T10:13:06.261Z,51.50
2022-08-16T10:19:00.249Z,49.40
2022-08-16T10:23:32.617Z,53.50
2022-08-16T10:28:39.524Z,56.40
2022-08-16T10:33:43.970Z,60.10
2022-08-16T10:38:46.292Z,64.50
2022-08-16T10:43:50.219Z,65.90
2022-08-16T10:48:52.458Z,67.80
2022-08-16T10:53:54.239Z,64.90
2022-08-16T10:59:29.607Z,66.70
2022-08-16T11:05:05.617Z,67.90
2022-08-16T11:09:43.250Z,67.70
2022-08-16T11:30:57.608Z,66.10
2022-08-16T11:41:21.436Z,64.70
2022-08-16T11:46:44.213Z,63.70
2022-08-16T11:51:45.861Z,64.20
2022-08-16T11:56:51.861Z,63.80
2022-08-16T12:02:04.137Z,64.10
2022-08-16T12:07:21.435Z,64.60
2022-08-16T12:12:28.417Z,62.00
2022-08-16T12:17:32.509Z,62.90
2022-08-16T12:22:36.766Z,64.70
2022-08-16T12:27:39.447Z,62.10
2022-08-16T12:32:42.191Z,64.90
2022-08-16T12:37:46.187Z,63.20
2022-08-16T12:42:52.744Z,63.70
2022-08-16T12:53:39.803Z,64.80
2022-08-16T12:58:49.941Z,63.50
2022-08-16T13:04:12.347Z,64.50
2022-08-16T13:09:23.568Z,65.20
2022-08-16T13:14:32.181Z,65.20
2022-08-16T13:20:03.866Z,65.20
2022-08-16T13:24:58.239Z,62.30
2022-08-16T13:30:00.216Z,63.70
2022-08-16T13:35:02.076Z,62.60
2022-08-16T13:40:06.733Z,62.20
2022-08-16T13:45:15.538Z,63.40
2022-08-16T13:50:17.675Z,62.70
2022-08-16T13:55:33.822Z,62.50
2022-08-16T14:00:36.324Z,63.80
2022-08-16T14:05:38.686Z,63.30
2022-08-16T14:10:40.471Z,61.80
2022-08-16T14:15:42.265Z,62.60
2022-08-16T14:20:48.900Z,62.60
2022-08-16T14:25:53.890Z,63.00
2022-08-16T14:30:56.774Z,64.00
2022-08-16T14:35:59.227Z,62.90
2022-08-16T14:41:01.224Z,63.10
2022-08-16T14:46:07.470Z,63.10
2022-08-16T14:51:09.505Z,61.70
2022-08-16T14:56:17.526Z,61.50
2022-08-16T15:01:57.460Z,61.20
2022-08-16T15:06:55.019Z,60.40
2022-08-16T15:12:04.800Z,60.20
2022-08-16T15:17:07.814Z,59.40
2022-08-16T15:22:13.879Z,59.40
2022-08-16T15:27:16.348Z,59.70
2022-08-16T15:32:26.728Z,58.60
2022-08-16T15:37:42.707Z,59.00
2022-08-16T15:42:54.892Z,59.30
2022-08-16T15:47:59.411Z,59.30
2022-08-16T15:58:57.585Z,60.50
2022-08-16T16:04:00.289Z,61.60
2022-08-16T16:09:02.701Z,62.00
2022-08-16T16:14:06.239Z,61.70
2022-08-16T16:19:10.344Z,62.90
2022-08-16T16:24:23.973Z,64.10
2022-08-16T16:29:37.191Z,66.00
2022-08-16T16:34:43.443Z,65.20
2022-08-16T16:39:45.913Z,67.00
2022-08-16T16:44:50.856Z,67.80
2022-08-16T16:49:54.782Z,69.80
2022-08-16T16:54:58.502Z,70.40
2022-08-16T17:00:04.700Z,72.00
2022-08-16T17:05:26.756Z,71.90
2022-08-16T17:10:45.464Z,72.50
2022-08-16T17:15:52.616Z,74.80
2022-08-16T17:20:55.042Z,76.10
2022-08-16T17:25:57.765Z,78.50
2022-08-16T17:31:00.211Z,85.00
2022-08-16T17:36:02.474Z,88.10
2022-08-16T17:41:05.676Z,90.80
2022-08-16T17:46:41.475Z,96.40
2022-08-16T17:51:34.481Z,99.90
2022-08-16T17:56:36.669Z,99.00
2022-08-16T18:01:38.952Z,99.90
2022-08-16T18:06:41.190Z,99.90
2022-08-16T18:11:44.658Z,99.90
2022-08-16T18:16:49.455Z,99.90
2022-08-16T18:22:10.393Z,99.90
2022-08-16T18:27:26.438Z,99.90
2022-08-16T18:32:29.435Z,99.90
2022-08-16T18:37:31.784Z,99.90
2022-08-16T18:42:35.985Z,99.90
2022-08-16T18:47:38.174Z,99.90
2022-08-16T18:52:57.341Z,99.90
2022-08-16T18:58:00.904Z,99.90
2022-08-16T19:03:19.432Z,99.90
2022-08-16T19:08:21.664Z,99.90
2022-08-16T19:13:28.593Z,99.90
2022-08-16T19:18:36.537Z,99.90
2022-08-16T19:23:41.344Z,99.90
2022-08-16T19:28:50.709Z,99.90
2022-08-16T19:34:04.477Z,99.90
2022-08-16T19:39:10.706Z,99.90
2022-08-16T19:44:13.864Z,99.90
2022-08-16T19:49:16.854Z,99.90
2022-08-16T19:54:19.424Z,99.90
2022-08-16T19:59:39.453Z,99.90
2022-08-16T20:04:42.535Z,99.90
2022-08-16T20:09:45.625Z,99.90
2022-08-16T20:14:49.067Z,99.90
2022-08-16T20:19:51.406Z,99.90
2022-08-16T20:24:54.883Z,99.90
2022-08-16T20:29:58.011Z,99.90
2022-08-16T20:35:01.277Z,99.90
2022-08-16T20:40:33.945Z,99.90
2022-08-16T20:45:32.321Z,99.90
2022-08-16T20:50:35.002Z,99.90
2022-08-16T20:55:40.292Z,99.90
2022-08-16T21:00:42.603Z,99.90
2022-08-16T21:05:46.685Z,99.90
2022-08-16T21:10:50.289Z,99.90
2022-08-16T21:15:52.686Z,99.90
2022-08-16T21:20:55.301Z,99.90
2022-08-16T21:25:59.319Z,99.90
2022-08-16T21:31:02.057Z,99.90
2022-08-16T21:36:04.642Z,99.90
2022-08-16T21:41:10.375Z,99.90
2022-08-16T21:46:12.616Z,99.90
2022-08-16T21:51:15.896Z,99.90
2022-08-16T21:56:18.627Z,99.90
2022-08-16T22:01:23.440Z,99.90
2022-08-16T22:06:25.880Z,99.90
2022-08-16T22:11:29.165Z,99.90
2022-08-16T22:16:34.681Z,99.90
2022-08-16T22:21:36.881Z,99.90
2022-08-16T22:26:43.147Z,99.90
2022-08-16T22:31:46.290Z,99.90
2022-08-16T22:36:49.878Z,99.90
2022-08-16T22:41:52.418Z,99.90
2022-08-16T22:46:54.579Z,99.90
2022-08-16T22:52:03.442Z,99.90
2022-08-16T22:57:05.844Z,99.90
2022-08-16T23:02:10.080Z,99.90
2022-08-16T23:07:12.331Z,99.90
2022-08-16T23:12:16.330Z,99.90
2022-08-16T23:17:23.080Z,99.90
2022-08-16T23:22:25.300Z,99.90
2022-08-16T23:27:27.450Z,99.90
2022-08-16T23:32:29.620Z,99.90
2022-08-16T23:37:31.810Z,99.90
2022-08-16T23:42:53.297Z,99.90
2022-08-16T23:47:57.130Z,99.90
2022-08-16T23:53:07.761Z,99.90
2022-08-16T23:58:11.610Z,99.90
